Weather observations for the past three days for
Bogue Field Marine Corps Auxiliary Field
Imperial (Metric)
Date Time (edt) Wind (mph) Vis. (mi.) Weather Sky Cond. Temperature (ºF) Relative Humidity Wind Chill (°F) Heat Index (°F) Pressure Precipitation (in)
Air Dwpt 6 hour altimeter (in) sea level (mb) 1 hr 3 hr 6 hr
Max. Min.
02 10:51 N 10 6.00 Overcast with Haze FEW043 OVC100 59 54 83% 29.87 1011.9
02 07:51 N 8 6.00 Fog/Mist BKN005 BKN016 OVC075 55.9 55 57.9 55.9 97% 29.88 1012.0
02 06:51 N 7 5.00 Light Rain Fog/Mist OVC080 55.9 55 97% 29.85 1011.2
02 05:51 NW 7 7.00 Light Rain OVC080 57 55.9 96% 29.86 1011.3
02 03:51 Calm 8.00 Light Rain OVC100 57 55 93% 29.85 1011.1
02 02:51 NE 3 9.00 Overcast BKN030 BKN050 OVC080 57 53.1 87% 29.86 1011.4
02 01:51 Calm 9.00 Overcast FEW028 OVC110 57 53.1 60.1 55.9 87% 29.87 1011.8
02 00:51 N 5 9.00 Mostly Cloudy BKN100 57 51.1 81% 29.89 1012.5
01 20:51 NE 5 9.00 Fair CLR 59 48 67% 29.92 1013.5
01 18:51 NE 8 7.00 Partly Cloudy FEW041 FEW070 SCT100 62.1 46 56% 29.92 1013.7
01 16:51 NE 9 8.00 A Few Clouds FEW080 64 45 50% 29.94 1014.1
01 15:51 E 8 8.00 Partly Cloudy SCT029 64.9 46 51% 29.93 1013.9
01 14:51 NE 8 8.00 Overcast OVC034 64.9 45 49% 29.96 1014.8
01 13:51 E 10 7.00 Mostly Cloudy BKN038 64.9 46 66 57 51% 29.97 1015.3
01 11:51 N 9 7.00 Mostly Cloudy BKN070 62.1 43 50% 30.01 1016.5
01 10:51 NE 13 7.00 Fair CLR 62.1 42.1 48% 29.99 1015.7
01 07:51 NE 9 7.00 Fair CLR 57 46.9 57 52 69% 29.98 1015.5
01 06:51 N 7 7.00 A Few Clouds FEW090 55.9 48.9 77% 29.96 1014.8
01 03:51 N 7 7.00 Fair CLR 55.9 55 97% 29.89 1012.4
01 02:51 Calm 7.00 Fair CLR 53.1 52 96% 29.89 1012.3
01 01:51 Calm 7.00 Fair CLR 54 53.1 62.1 53.1 97% 29.9 1012.7
30 21:51 Calm 7.00 Fair CLR 57 55.9 96% 29.87 1011.7
30 19:51 Calm 7.00 Fair CLR 62.1 57 68 62.1 84% 29.83 1010.6
30 18:51 Calm 7.00 A Few Clouds FEW060 66 57 73% 29.82 1010.0
30 16:51 E 10 7.00 Overcast BKN014 BKN022 OVC110 66 60.1 81% 29.81 1009.6
30 15:51 E 7 6.00 Overcast with Haze BKN016 OVC070 64.9 60.1 84% 29.81 1009.7
30 13:51 NE 3 7.00 Overcast SCT075 OVC095 64.9 61 66 62.1 87% 29.81 1009.9 0.01 0.03
30 11:51 NW 7 4.00 Light Rain Fog/Mist FEW015 SCT024 OVC070 64 61 90% 29.86 1011.6 0.01
30 06:51 NW 3 2.50 Fog/Mist FEW002 64 63 96% 29.77 1008.3
30 05:51 SW 3 5.00 Fog/Mist CLR 64 63 96% 29.76 1008.1 0.01
30 04:51 Calm 6.00 Fog/Mist CLR 64 63 96% 29.75 1007.7 0.02 0.05
30 03:51 NW 5 6.00 Thunderstorm Light Rain Fog/Mist FEW055 SCT085 OVC110 66 64.9 96% 29.77 1008.4 0.03
29 23:51 SW 9 6.00 Fog/Mist FEW110 68 66 93% 29.81 1009.7
29 22:51 SW 13 7.00 Fair CLR 68 64.9 90% 29.82 1010.1
29 21:51 SW 8 7.00 Fair CLR 68 66 93% 29.82 1010.1
29 18:51 SW 8 7.00 Mostly Cloudy BKN120 70 64 82% 29.81 1009.8
29 15:51 S 9 7.00 Overcast OVC110 69.1 60.1 73% 29.86 1011.6
Date Time (edt) Wind (mph) Vis. (mi.) Weather Sky Cond. Air Dwpt Max. Min. Relative Humidity Wind Chill (°F) Heat Index (°F) altimeter (in) sea level (mb) 1 hr 3 hr 6 hr
6 hour
Temperature (ºF) Pressure Precipitation (in)